Time;durP1;ratioP1;P1;durP2;ratioP2;P2;SDS_P1;SDS_P2;PMS_P1;PMS_P2;Temp;Humidity;BMP_temperature;BMP_pressure;BME280_temperature;BME280_humidity;BME280_pressure;Samples;Min_cycle;Max_cycle;Signal;HPM_P1;HPM_P2
2022/06/19 00:02:12;;;;;;;8.20;5.10;;;23.00;51.90;;;22.25;49.71;97598.25;5091155;28;20930;-77
2022/06/19 00:04:41;;;;;;;8.73;5.03;;;23.00;51.60;;;22.22;49.74;97600.47;5089880;28;20993;-77
2022/06/19 00:07:09;;;;;;;12.00;5.33;;;22.90;51.60;;;22.19;49.77;97592.00;5076191;28;20444;-78
2022/06/19 00:09:37;;;;;;;9.07;5.20;;;22.90;51.80;;;22.27;49.91;97593.25;5087943;28;20497;-77
2022/06/19 00:12:05;;;;;;;10.10;5.47;;;22.90;51.90;;;22.21;50.23;97593.34;5082755;28;20457;-77
2022/06/19 00:14:34;;;;;;;10.07;5.07;;;22.80;51.80;;;22.28;49.81;97587.44;5087062;28;20454;-77
2022/06/19 00:17:01;;;;;;;5.70;5.00;;;22.90;51.90;;;22.22;49.94;97585.94;5088881;28;20444;-78
2022/06/19 00:19:28;;;;;;;9.60;5.13;;;22.90;51.90;;;22.21;50.31;97576.84;5087991;28;21330;-77
2022/06/19 00:21:57;;;;;;;11.30;5.00;;;22.80;52.00;;;22.18;50.28;97582.13;5087898;28;20472;-79
2022/06/19 00:24:24;;;;;;;11.73;5.83;;;22.80;52.10;;;22.07;50.35;97568.56;5087905;28;20903;-78
2022/06/19 00:26:52;;;;;;;9.57;5.30;;;22.80;52.20;;;22.03;50.57;97569.47;5088373;28;20743;-78
2022/06/19 00:29:20;;;;;;;8.40;4.97;;;22.70;52.20;;;22.03;50.69;97564.78;5106792;28;20986;-77
2022/06/19 00:31:47;;;;;;;5.63;5.10;;;22.70;52.40;;;22.00;50.58;97559.88;5089840;28;20446;-79
2022/06/19 00:34:14;;;;;;;11.60;5.20;;;22.60;52.40;;;21.95;50.89;97568.22;5083866;28;20455;-77
2022/06/19 00:36:43;;;;;;;10.10;5.33;;;22.60;52.50;;;21.89;50.97;97559.25;5090367;28;20544;-77
2022/06/19 00:39:12;;;;;;;6.50;4.77;;;22.50;52.40;;;21.85;51.04;97560.16;5090803;28;20458;-77
2022/06/19 00:41:40;;;;;;;6.40;4.63;;;22.50;52.50;;;21.76;51.06;97558.09;5082847;28;20935;-77
2022/06/19 00:44:12;;;;;;;8.03;4.53;;;22.40;52.50;;;21.67;50.98;97551.63;5088463;28;20476;-78
2022/06/19 00:46:48;;;;;;;8.13;4.57;;;22.40;52.60;;;21.70;51.12;97556.53;5089616;28;20878;-77
2022/06/19 00:49:19;;;;;;;6.60;4.70;;;22.30;52.60;;;21.56;51.44;97530.91;5085508;28;20495;-77
2022/06/19 00:51:51;;;;;;;6.60;4.93;;;22.30;52.70;;;21.65;51.44;97553.84;5082309;28;20950;-78
2022/06/19 00:54:21;;;;;;;6.53;4.60;;;22.30;52.80;;;21.46;51.61;97540.97;5090263;28;20448;-78
2022/06/19 00:56:50;;;;;;;11.93;5.33;;;22.10;52.80;;;21.21;52.17;97504.50;5106494;28;20742;-77
2022/06/19 00:59:19;;;;;;;8.10;4.97;;;22.10;53.20;;;21.48;51.92;97530.47;5093379;28;20448;-78
2022/06/19 01:01:47;;;;;;;6.53;4.90;;;22.10;53.10;;;21.50;51.88;97530.16;5091305;28;20451;-77
2022/06/19 01:04:23;;;;;;;9.23;5.10;;;22.10;53.20;;;21.40;52.15;97522.91;5087791;28;20559;-78
2022/06/19 01:06:50;;;;;;;8.37;4.57;;;22.10;53.30;;;21.38;51.94;97514.16;5086557;28;20450;-77
2022/06/19 01:09:19;;;;;;;7.20;4.20;;;22.00;53.20;;;21.32;52.23;97498.88;5083674;28;20451;-77
2022/06/19 01:11:47;;;;;;;6.10;4.83;;;22.00;53.20;;;21.29;52.02;97494.78;5082441;28;20517;-76
2022/06/19 01:14:19;;;;;;;5.50;4.40;;;22.00;53.30;;;21.27;52.31;97479.69;5087090;28;20455;-77
2022/06/19 01:16:47;;;;;;;5.77;5.07;;;21.90;53.30;;;20.81;52.71;97427.13;5090688;28;20536;-77
2022/06/19 01:19:29;;;;;;;9.57;4.77;;;21.80;53.50;;;20.98;53.22;97473.28;5083894;28;20449;-78
2022/06/19 01:22:07;;;;;;;6.10;4.67;;;21.70;53.60;;;21.06;53.02;97467.09;5086899;28;20442;-77
2022/06/19 01:24:56;;;;;;;7.80;4.50;;;21.70;54.00;;;21.05;53.01;97464.66;5088053;28;20536;-78
2022/06/19 01:30:13;;;;;;;7.10;5.50;;;21.70;54.10;;;20.96;53.35;97472.75;5082301;28;20456;-79
2022/06/19 01:32:41;;;;;;;5.70;4.47;;;21.60;54.00;;;20.90;53.65;97457.44;5089451;28;20455;-78
2022/06/19 01:35:11;;;;;;;7.07;4.70;;;21.60;54.20;;;20.83;53.68;97462.50;5086116;28;20484;-77
2022/06/19 01:37:41;;;;;;;6.50;4.20;;;21.60;54.20;;;20.71;54.51;97450.00;5085548;28;20474;-79
2022/06/19 01:40:17;;;;;;;4.80;4.30;;;21.40;54.60;;;20.79;54.20;97451.28;5088946;28;20459;-78
2022/06/19 01:42:44;;;;;;;8.53;5.10;;;21.40;54.70;;;20.79;54.04;97443.03;5086420;28;20950;-77
2022/06/19 01:45:13;;;;;;;9.60;5.33;;;21.40;54.70;;;20.78;54.37;97435.91;5081607;28;20938;-77
2022/06/19 01:47:41;;;;;;;6.70;4.83;;;21.40;54.90;;;20.79;54.21;97423.81;5081206;28;20466;-77
2022/06/19 01:50:13;;;;;;;6.40;4.90;;;21.50;55.30;;;20.66;54.49;97428.13;5087753;28;20570;-77
2022/06/19 01:52:41;;;;;;;6.20;4.87;;;21.40;55.00;;;20.64;54.50;97422.94;5088387;28;20469;-77
2022/06/19 01:55:14;;;;;;;7.70;4.50;;;21.30;55.00;;;20.59;54.63;97414.78;5102301;28;20485;-78
2022/06/19 01:57:45;;;;;;;6.20;5.10;;;21.30;55.20;;;20.52;55.13;97411.56;5108080;28;21034;-77
2022/06/19 02:00:18;;;;;;;7.43;4.27;;;21.20;55.20;;;20.51;54.95;97415.44;5098192;28;21369;-77
2022/06/19 02:02:53;;;;;;;6.60;5.20;;;21.20;55.40;;;20.46;55.04;97410.81;5100639;28;20442;-76
2022/06/19 02:05:20;;;;;;;9.47;5.40;;;21.20;55.50;;;20.39;54.89;97411.19;5087737;28;20450;-77
2022/06/19 02:07:48;;;;;;;5.67;4.80;;;21.10;55.50;;;20.29;55.43;97416.00;5090512;28;20482;-78
2022/06/19 02:10:17;;;;;;;6.20;5.00;;;21.00;55.70;;;20.05;55.85;97423.13;5082126;28;20450;-78
2022/06/19 02:12:44;;;;;;;8.17;5.00;;;20.80;55.90;;;19.91;56.49;97427.66;5080284;28;20462;-77
2022/06/19 02:15:14;;;;;;;7.20;4.50;;;20.60;56.20;;;19.85;56.46;97417.84;5079512;28;20901;-77
2022/06/19 02:17:48;;;;;;;6.07;4.80;;;20.50;56.40;;;20.23;55.30;97410.59;5086544;28;20455;-78
2022/06/19 02:20:15;;;;;;;6.83;5.00;;;20.70;56.20;;;20.44;54.69;97404.81;5071609;28;20558;-77
2022/06/19 02:22:42;;;;;;;4.47;4.07;;;21.00;55.90;;;20.45;54.41;97397.41;5086501;28;20451;-77
2022/06/19 02:25:11;;;;;;;4.87;4.40;;;21.10;55.60;;;20.35;54.58;97406.59;5087612;28;20508;-77
2022/06/19 02:27:40;;;;;;;7.23;5.10;;;21.10;55.50;;;20.12;55.08;97394.56;5086599;28;20474;-78
2022/06/19 02:30:13;;;;;;;6.30;4.50;;;20.90;55.50;;;20.17;55.24;97391.75;5089418;28;20523;-77
2022/06/19 02:32:45;;;;;;;8.07;4.43;;;20.80;56.00;;;20.29;54.98;97389.41;5087130;28;20546;-76
2022/06/19 02:35:17;;;;;;;6.10;4.20;;;20.90;55.90;;;20.27;54.96;97386.13;5085488;28;20549;-77
2022/06/19 02:37:51;;;;;;;7.60;4.37;;;21.00;55.90;;;20.17;55.18;97370.63;5084527;28;20483;-78
2022/06/19 02:40:40;;;;;;;5.40;4.37;;;20.90;55.90;;;20.22;55.28;97391.66;5087823;28;20511;-77
2022/06/19 02:43:16;;;;;;;5.83;4.50;;;20.90;55.90;;;20.16;55.01;97396.41;5088039;28;20670;-78
2022/06/19 02:45:44;;;;;;;9.27;4.80;;;20.90;55.90;;;20.05;55.14;97401.19;5088529;28;20458;-78
2022/06/19 02:48:21;;;;;;;5.50;4.03;;;20.80;55.80;;;19.97;55.27;97404.59;5087724;28;20450;-77
2022/06/19 02:50:49;;;;;;;7.00;4.73;;;20.70;55.70;;;19.74;55.94;97403.47;5087005;28;20475;-77
2022/06/19 02:53:17;;;;;;;6.10;3.80;;;20.50;55.90;;;19.52;56.36;97408.31;5085530;28;20438;-77
2022/06/19 02:55:44;;;;;;;6.73;4.17;;;20.30;56.30;;;19.63;56.23;97402.72;5096018;28;20933;-77
2022/06/19 02:58:13;;;;;;;5.43;4.53;;;20.30;56.40;;;19.32;56.34;97359.22;5099746;28;20488;-77
2022/06/19 03:00:43;;;;;;;4.93;4.47;;;20.30;56.70;;;19.57;56.59;97401.16;5087998;28;20454;-76
2022/06/19 03:03:17;;;;;;;6.67;4.90;;;20.30;56.70;;;19.64;56.43;97396.97;5088840;28;20955;-77
2022/06/19 03:05:44;;;;;;;6.50;4.30;;;20.30;56.80;;;19.64;56.62;97391.50;5085553;28;20957;-77
2022/06/19 03:08:11;;;;;;;7.03;4.50;;;20.40;57.00;;;19.53;57.06;97393.53;5084743;28;20457;-77
2022/06/19 03:10:39;;;;;;;8.83;5.00;;;20.20;57.20;;;19.29;57.93;97406.34;5085441;28;20460;-76
2022/06/19 03:13:06;;;;;;;5.63;4.43;;;20.10;57.60;;;19.13;58.50;97409.22;5086212;28;20452;-77
2022/06/19 03:15:36;;;;;;;6.73;4.20;;;19.90;58.10;;;19.04;59.17;97405.47;5087616;28;20832;-79
2022/06/19 03:18:04;;;;;;;6.07;4.67;;;19.70;58.90;;;19.02;59.29;97408.47;5086048;28;20481;-77
2022/06/19 03:20:31;;;;;;;8.20;4.90;;;19.70;59.50;;;19.17;59.04;97407.53;5085152;28;20457;-77
2022/06/19 03:22:59;;;;;;;9.43;4.90;;;19.80;59.70;;;19.32;58.32;97405.75;5085147;28;20462;-77
2022/06/19 03:25:27;;;;;;;6.13;4.70;;;19.90;59.20;;;19.39;58.03;97395.31;5087590;28;20483;-77
2022/06/19 03:27:54;;;;;;;8.07;4.60;;;20.00;59.10;;;19.47;57.97;97397.41;5082121;28;20467;-77
2022/06/19 03:30:22;;;;;;;5.37;4.23;;;20.10;59.10;;;19.47;58.00;97407.56;5067136;28;20457;-77
2022/06/19 03:32:51;;;;;;;8.43;4.63;;;20.20;59.00;;;19.28;58.33;97418.41;5077941;28;20473;-77
2022/06/19 03:35:19;;;;;;;8.97;4.73;;;20.10;59.00;;;19.21;58.46;97426.94;5084942;28;20460;-77
2022/06/19 03:37:46;;;;;;;7.67;5.40;;;20.00;59.10;;;19.21;59.25;97427.78;5085475;28;20467;-77
2022/06/19 03:40:14;;;;;;;6.90;4.70;;;20.00;59.80;;;19.16;58.46;97422.31;5086850;28;20452;-77
2022/06/19 03:42:41;;;;;;;5.67;4.80;;;20.00;59.70;;;19.32;58.72;97441.34;5085909;28;20461;-76
2022/06/19 03:45:09;;;;;;;6.73;4.90;;;20.00;59.60;;;19.45;58.02;97448.91;5085792;28;20464;-77
2022/06/19 03:47:37;;;;;;;6.37;5.10;;;20.20;59.60;;;19.47;58.20;97454.13;5085048;28;20505;-77
2022/06/19 03:50:08;;;;;;;6.07;4.87;;;20.20;59.40;;;19.46;58.46;97450.56;5085850;28;20973;-76
2022/06/19 03:52:35;;;;;;;5.77;4.37;;;20.30;59.60;;;19.63;58.25;97452.88;5086939;28;20526;-78
2022/06/19 03:55:03;;;;;;;6.90;4.80;;;20.40;59.60;;;19.98;56.89;97443.78;5088179;28;20457;-76
2022/06/19 03:57:30;;;;;;;6.70;4.80;;;20.60;59.10;;;20.04;56.77;97424.25;5102654;28;20462;-78
2022/06/19 03:59:58;;;;;;;6.20;4.33;;;20.80;59.00;;;20.37;56.09;97429.06;5086911;28;20492;-78
2022/06/19 04:02:25;;;;;;;5.17;4.73;;;21.00;58.50;;;20.41;56.11;97430.09;5086876;28;20466;-79
2022/06/19 04:04:53;;;;;;;5.63;5.13;;;21.10;58.40;;;20.64;55.21;97425.66;5081680;28;20507;-77
2022/06/19 04:07:21;;;;;;;4.73;4.10;;;21.30;58.10;;;21.03;53.99;97412.78;5096271;27;20456;-77
2022/06/19 04:09:49;;;;;;;6.20;4.10;;;21.70;57.30;;;21.64;51.00;97436.78;5092144;28;20456;-77
2022/06/19 04:12:17;;;;;;;3.70;3.40;;;22.30;55.50;;;22.11;49.72;97435.94;5095134;28;20797;-76
2022/06/19 04:14:44;;;;;;;3.93;3.63;;;22.80;54.30;;;22.49;48.99;97443.97;5102282;28;20693;-78
2022/06/19 04:17:11;;;;;;;4.50;4.10;;;23.30;53.80;;;22.88;47.59;97444.50;5102715;28;20451;-77
2022/06/19 04:19:38;;;;;;;5.83;3.67;;;23.80;52.90;;;23.32;46.36;97436.63;5082648;28;20475;-77
2022/06/19 04:22:06;;;;;;;6.33;4.10;;;24.30;52.10;;;23.70;45.23;97433.44;5089003;28;20489;-78
2022/06/19 04:24:35;;;;;;;10.03;4.37;;;24.50;51.60;;;23.48;45.68;97424.09;5090479;28;20986;-76
2022/06/19 04:27:06;;;;;;;4.70;4.20;;;24.50;51.30;;;23.51;45.22;97377.72;5081267;28;20481;-77
2022/06/19 04:29:33;;;;;;;5.83;4.00;;;24.80;51.30;;;23.99;44.69;97414.78;5098462;28;20455;-77
2022/06/19 04:32:00;;;;;;;5.73;4.10;;;25.00;50.90;;;24.12;44.15;97410.28;5087988;28;20455;-77
2022/06/19 04:34:28;;;;;;;4.10;3.60;;;25.30;50.50;;;24.25;44.28;97400.25;5088522;28;20459;-78
2022/06/19 04:36:55;;;;;;;4.80;3.77;;;25.30;50.60;;;24.48;43.81;97403.72;5087736;28;20447;-77
2022/06/19 04:39:23;;;;;;;4.50;4.10;;;25.40;50.50;;;24.39;44.17;97397.38;5091451;28;20459;-76
2022/06/19 04:41:51;;;;;;;7.03;3.57;;;25.40;50.20;;;24.13;44.51;97389.84;5088921;28;20456;-76
2022/06/19 04:44:20;;;;;;;4.47;3.90;;;25.30;50.20;;;24.17;44.40;97394.41;5091936;28;20838;-76
2022/06/19 04:46:47;;;;;;;3.63;3.33;;;25.20;50.20;;;24.28;44.19;97378.34;5089993;28;20504;-77
2022/06/19 04:49:15;;;;;;;4.50;3.90;;;25.20;50.30;;;24.40;44.11;97374.16;5085820;28;20523;-77
2022/06/19 04:51:44;;;;;;;6.13;4.23;;;25.30;50.20;;;24.85;43.21;97368.38;5089411;28;20486;-76
2022/06/19 04:54:11;;;;;;;4.57;4.20;;;25.70;50.10;;;25.18;42.17;97365.09;5088619;28;20938;-77
2022/06/19 04:56:39;;;;;;;6.00;3.00;;;26.10;49.50;;;25.39;42.13;97367.13;5106534;28;20463;-77
2022/06/19 04:59:08;;;;;;;5.20;3.57;;;26.40;49.10;;;25.20;42.19;97366.69;5092923;28;20447;-77
2022/06/19 05:01:38;;;;;;;7.37;3.83;;;26.30;49.10;;;25.41;42.05;97373.19;5090185;28;20456;-77
2022/06/19 05:04:09;;;;;;;3.70;3.30;;;26.40;49.30;;;26.09;40.23;97355.03;5086514;28;20462;-77
2022/06/19 05:06:37;;;;;;;3.67;3.37;;;27.00;48.70;;;26.55;39.44;97379.38;5098961;28;20502;-78
2022/06/19 05:09:05;;;;;;;4.50;3.80;;;27.50;48.10;;;26.39;39.38;97371.66;5078644;28;20947;-77
2022/06/19 05:11:33;;;;;;;4.23;3.83;;;27.50;47.90;;;27.08;38.45;97374.22;5090097;28;20444;-77
2022/06/19 05:14:01;;;;;;;4.77;4.27;;;27.80;47.80;;;27.11;38.71;97373.53;5089519;28;20992;-76
2022/06/19 05:16:30;;;;;;;4.27;3.87;;;28.10;47.50;;;26.32;39.39;97309.66;5087155;28;20478;-78
2022/06/19 05:18:59;;;;;;;3.80;3.50;;;27.80;47.40;;;26.89;38.80;97376.66;5081980;28;20456;-78
2022/06/19 05:21:27;;;;;;;4.50;3.67;;;27.80;47.40;;;26.68;39.49;97366.38;5087565;28;20495;-78
2022/06/19 05:23:56;;;;;;;4.10;3.67;;;27.70;47.40;;;26.72;39.43;97362.59;5087323;28;21060;-78
2022/06/19 05:26:26;;;;;;;7.40;3.83;;;27.90;47.50;;;27.27;38.09;97375.66;5093671;28;20467;-78
2022/06/19 05:28:57;;;;;;;4.50;3.83;;;28.20;47.10;;;27.57;37.64;97376.34;5087381;28;20460;-77
2022/06/19 05:31:26;;;;;;;6.60;3.60;;;28.60;47.00;;;28.46;35.93;97362.16;5088501;28;20489;-78
2022/06/19 05:33:56;;;;;;;4.80;3.73;;;29.00;46.70;;;28.61;35.22;97373.72;5073696;28;20502;-78
2022/06/19 05:36:28;;;;;;;3.53;3.10;;;29.50;46.00;;;27.34;37.74;97369.56;5087802;28;20491;-78
2022/06/19 05:38:55;;;;;;;6.13;3.50;;;28.70;46.40;;;27.82;37.08;97356.13;5088787;28;20438;-77
2022/06/19 05:41:23;;;;;;;6.37;3.20;;;28.40;46.80;;;28.34;36.04;97349.09;5088472;28;20951;-77
2022/06/19 05:43:51;;;;;;;6.20;3.80;;;29.20;46.20;;;28.18;36.48;97362.91;5087898;28;20451;-78
2022/06/19 05:46:21;;;;;;;4.03;3.73;;;29.40;46.00;;;28.98;35.18;97366.09;5084118;28;20468;-79
2022/06/19 05:48:49;;;;;;;4.47;3.33;;;29.80;46.00;;;28.24;36.12;97319.84;5079460;28;20459;-78
2022/06/19 05:51:20;;;;;;;6.00;3.93;;;29.80;45.80;;;29.16;34.72;97359.41;5086746;28;20440;-77
2022/06/19 05:53:55;;;;;;;6.53;3.57;;;30.30;45.30;;;29.15;34.69;97358.59;5086295;28;20440;-79
2022/06/19 05:56:23;;;;;;;6.20;3.27;;;30.40;45.10;;;29.03;34.51;97373.34;5101474;28;20454;-78
2022/06/19 05:58:50;;;;;;;7.50;3.73;;;30.30;45.00;;;28.67;35.03;97358.41;5094293;28;20525;-78
2022/06/19 06:01:20;;;;;;;5.70;4.00;;;30.00;44.90;;;28.26;36.13;97356.38;5083735;28;20512;-78
2022/06/19 06:03:47;;;;;;;5.43;3.57;;;29.40;45.40;;;28.62;35.46;97350.31;5081824;28;20455;-78
2022/06/19 06:06:18;;;;;;;7.03;3.50;;;29.70;45.40;;;29.56;33.96;97352.94;5082949;28;20544;-78
2022/06/19 06:08:45;;;;;;;4.10;3.80;;;30.30;45.10;;;29.41;34.15;97352.53;5088310;28;20942;-79
2022/06/19 06:11:13;;;;;;;4.00;3.70;;;30.40;45.00;;;29.46;33.99;97361.81;5089913;28;20451;-78
2022/06/19 06:13:41;;;;;;;5.20;3.60;;;30.80;44.60;;;30.23;32.90;97357.78;5076169;28;20456;-79
2022/06/19 06:16:08;;;;;;;5.33;3.80;;;31.30;44.10;;;29.46;33.70;97365.41;5086998;28;20457;-79
2022/06/19 06:18:35;;;;;;;8.03;3.67;;;31.10;44.10;;;29.25;34.11;97362.84;5084777;28;20999;-79
2022/06/19 06:21:06;;;;;;;4.00;3.60;;;30.60;44.30;;;29.18;33.78;97318.13;5084874;28;20484;-79
2022/06/19 06:23:35;;;;;;;5.00;3.93;;;30.70;44.40;;;29.17;34.48;97353.50;5083923;28;20436;-79
2022/06/19 06:26:05;;;;;;;5.83;3.93;;;30.40;44.40;;;29.37;34.16;97362.78;5103498;28;20544;-78
2022/06/19 06:28:33;;;;;;;6.17;4.03;;;30.80;44.30;;;28.73;34.96;97362.53;5083991;28;20904;-78
2022/06/19 06:31:00;;;;;;;5.07;3.73;;;30.20;44.40;;;28.43;35.39;97357.28;5089586;28;20946;-80
2022/06/19 06:33:28;;;;;;;5.80;3.70;;;29.70;44.70;;;27.75;36.52;97358.69;5086376;28;20444;-79
2022/06/19 06:35:56;;;;;;;8.60;4.13;;;29.00;45.10;;;26.97;38.43;97356.41;5088516;28;20478;-79
2022/06/19 06:38:25;;;;;;;6.60;3.93;;;28.10;46.00;;;26.74;38.84;97345.63;5086852;28;20979;-79
2022/06/19 06:40:54;;;;;;;5.70;3.80;;;27.60;46.40;;;26.57;38.94;97343.84;5087400;28;20448;-78
2022/06/19 06:43:22;;;;;;;6.90;4.00;;;27.30;46.80;;;26.46;39.48;97343.41;5087671;28;20513;-79
2022/06/19 06:45:50;;;;;;;7.17;4.30;;;27.20;46.90;;;26.37;39.38;97340.69;5086960;28;20460;-80
2022/06/19 06:48:19;;;;;;;5.67;4.00;;;27.20;46.90;;;26.57;39.34;97338.28;5082236;28;20817;-78
2022/06/19 06:50:47;;;;;;;8.37;3.90;;;27.10;47.20;;;26.34;39.39;97346.13;5084990;28;20440;-77
2022/06/19 06:53:14;;;;;;;6.20;4.77;;;27.00;47.20;;;26.35;39.46;97343.00;5071256;28;20447;-78
2022/06/19 06:55:44;;;;;;;6.73;4.23;;;27.00;47.20;;;26.55;39.30;97346.91;5092187;28;20524;-79
2022/06/19 06:58:13;;;;;;;7.80;4.60;;;27.10;47.20;;;26.63;39.49;97352.75;5093953;28;20447;-78
2022/06/19 07:00:42;;;;;;;5.60;4.00;;;27.30;47.20;;;26.80;39.57;97344.28;5077501;28;20761;-79
2022/06/19 07:03:11;;;;;;;6.97;4.20;;;27.40;47.40;;;26.90;39.62;97336.72;5067567;28;20484;-78
2022/06/19 07:05:38;;;;;;;9.23;4.27;;;27.50;47.40;;;27.10;38.89;97337.84;5076552;28;20487;-76
2022/06/19 07:08:06;;;;;;;8.13;4.10;;;27.70;47.30;;;27.21;38.49;97336.25;5083220;28;20521;-78
2022/06/19 07:10:33;;;;;;;8.67;3.60;;;27.80;47.00;;;26.99;38.35;97331.91;5093793;28;20535;-78
2022/06/19 07:13:01;;;;;;;8.40;4.37;;;27.60;46.80;;;27.00;38.64;97331.59;5081993;28;20834;-78
2022/06/19 07:15:30;;;;;;;10.37;4.87;;;27.70;46.90;;;27.25;38.22;97337.19;5081185;28;20484;-78
2022/06/19 07:17:57;;;;;;;8.33;4.27;;;27.70;46.80;;;27.43;38.03;97331.44;5081339;28;20885;-78
2022/06/19 07:20:24;;;;;;;8.10;4.80;;;27.90;46.90;;;27.51;37.77;97327.78;5079241;28;20451;-79
2022/06/19 07:22:53;;;;;;;6.73;4.93;;;28.10;46.70;;;27.53;37.60;97330.25;5083567;28;20495;-78
2022/06/19 07:25:21;;;;;;;10.60;4.47;;;28.10;46.60;;;27.67;37.72;97330.69;5086982;28;20989;-80
2022/06/19 07:27:50;;;;;;;9.00;4.63;;;28.30;46.80;;;27.61;37.74;97321.00;5086816;28;20552;-79
2022/06/19 07:30:22;;;;;;;9.63;4.50;;;28.20;46.70;;;27.70;37.47;97321.72;5088108;28;20444;-78
2022/06/19 07:32:51;;;;;;;8.23;4.87;;;28.20;46.60;;;27.69;37.33;97317.31;5076253;28;20480;-78
2022/06/19 07:35:18;;;;;;;8.77;4.83;;;28.20;46.50;;;27.76;37.16;97325.06;5078651;28;20444;-80
2022/06/19 07:37:46;;;;;;;7.87;5.10;;;28.30;46.40;;;27.88;37.17;97324.25;5085284;28;20749;-79
2022/06/19 07:40:16;;;;;;;8.70;4.50;;;28.40;46.50;;;27.88;37.22;97318.69;5089034;28;20507;-78
2022/06/19 07:42:43;;;;;;;8.20;5.20;;;28.50;46.50;;;27.96;37.01;97323.31;5091324;28;20447;-78
2022/06/19 07:45:11;;;;;;;4.80;4.30;;;28.40;46.50;;;28.36;36.70;97301.53;5081889;28;20552;-78
2022/06/19 07:50:26;;;;;;;10.83;5.10;;;29.00;46.30;;;28.93;35.23;97307.16;5084531;28;20519;-78
2022/06/19 07:52:55;;;;;;;8.83;5.17;;;29.30;46.10;;;28.91;35.28;97310.28;5071241;28;20440;-79
2022/06/19 07:55:26;;;;;;;6.30;4.60;;;29.50;45.70;;;28.98;35.01;97304.13;5080101;28;20486;-77
2022/06/19 07:57:54;;;;;;;7.07;4.57;;;29.50;45.60;;;28.96;35.12;97295.31;5096298;28;20554;-79
2022/06/19 08:00:26;;;;;;;7.97;4.43;;;29.60;45.80;;;29.30;35.00;97320.84;5091013;28;20452;-79
2022/06/19 08:02:55;;;;;;;9.80;5.23;;;29.70;45.70;;;29.30;34.86;97314.50;5103592;28;20491;-78
2022/06/19 08:05:26;;;;;;;8.97;5.67;;;29.80;45.60;;;28.99;34.44;97300.16;5088725;28;20475;-78
2022/06/19 08:07:57;;;;;;;9.70;5.43;;;29.60;45.30;;;29.37;34.53;97320.22;5091267;28;20516;-78
2022/06/19 08:10:30;;;;;;;11.50;5.27;;;29.80;45.50;;;29.51;34.25;97317.06;5092227;28;20444;-78
2022/06/19 08:12:58;;;;;;;7.43;5.07;;;30.00;45.20;;;29.62;34.32;97320.91;5081727;28;20459;-79
2022/06/19 08:15:26;;;;;;;13.60;5.80;;;30.10;45.20;;;29.64;33.39;97323.34;5090851;28;20919;-78
2022/06/19 08:17:53;;;;;;;11.90;5.07;;;30.10;44.90;;;29.71;33.93;97317.13;5086319;28;20448;-78
2022/06/19 08:20:22;;;;;;;11.53;6.10;;;30.20;45.40;;;29.86;33.43;97310.75;5090408;28;20542;-78
2022/06/19 08:22:51;;;;;;;10.30;5.00;;;30.30;45.00;;;30.03;34.20;97304.03;5087237;28;20568;-79
2022/06/19 08:25:21;;;;;;;15.27;6.17;;;30.40;45.60;;;30.07;33.09;97306.88;5093554;27;20472;-79
2022/06/19 08:27:52;;;;;;;8.97;5.57;;;30.60;44.90;;;30.13;33.02;97279.56;5087306;28;20459;-78
2022/06/19 08:30:24;;;;;;;9.43;5.40;;;30.70;44.90;;;30.60;32.66;97306.44;5084998;28;21036;-79
2022/06/19 08:32:52;;;;;;;8.30;5.07;;;30.90;44.80;;;30.51;33.22;97311.44;5088782;28;20448;-78
2022/06/19 08:35:20;;;;;;;8.70;5.77;;;30.90;44.70;;;30.54;32.54;97311.50;5087948;28;20479;-78
2022/06/19 08:37:53;;;;;;;10.43;6.20;;;31.00;44.50;;;30.80;32.24;97303.69;5087261;28;20463;-79
2022/06/19 08:40:37;;;;;;;9.90;5.33;;;31.10;44.40;;;30.92;31.75;97299.94;5090786;28;21080;-79
2022/06/19 08:43:23;;;;;;;9.30;5.33;;;31.30;44.20;;;31.00;32.13;97301.69;5099715;28;20459;-78
2022/06/19 08:46:06;;;;;;;10.23;5.73;;;31.40;44.40;;;31.03;31.83;97300.13;5105279;28;21012;-78
2022/06/19 08:48:50;;;;;;;17.83;5.60;;;31.30;44.30;;;30.94;32.14;97297.59;5104710;28;20486;-77
2022/06/19 08:51:30;;;;;;;14.33;5.70;;;31.30;44.30;;;31.10;31.74;97298.28;5103469;28;20447;-78
2022/06/19 08:54:18;;;;;;;9.30;5.37;;;31.40;44.30;;;31.33;31.50;97297.56;5092179;28;20447;-78
2022/06/19 08:56:54;;;;;;;9.40;6.30;;;31.60;44.00;;;31.38;31.24;97304.78;5089499;28;20444;-78
2022/06/19 08:59:35;;;;;;;14.90;6.23;;;31.70;43.90;;;31.38;31.10;97302.00;5083416;28;20445;-77
2022/06/19 09:02:18;;;;;;;8.57;6.37;;;31.70;44.10;;;31.31;31.35;97299.09;5087444;28;20792;-78
2022/06/19 09:08:16;;;;;;;7.07;5.80;;;31.80;44.20;;;31.61;31.23;97302.00;5088544;28;20589;-77
2022/06/19 09:10:51;;;;;;;7.10;6.30;;;31.90;44.10;;;31.88;30.36;97307.63;5089085;28;20509;-78
2022/06/19 09:13:59;;;;;;;8.33;6.40;;;32.10;43.80;;;31.55;31.23;97303.50;5086580;28;20497;-78
2022/06/19 09:16:38;;;;;;;13.60;6.60;;;32.00;43.70;;;31.70;30.61;97303.72;5094538;28;20466;-78
2022/06/19 09:19:14;;;;;;;10.00;6.30;;;32.10;43.80;;;31.45;30.42;97301.31;5084718;28;20463;-78
2022/06/19 09:22:12;;;;;;;11.10;7.17;;;31.80;43.40;;;31.86;30.57;97300.84;5087892;28;20457;-78
2022/06/19 09:25:09;;;;;;;8.93;6.87;;;32.00;43.70;;;31.75;30.83;97303.41;5088416;28;20469;-79
2022/06/19 09:27:44;;;;;;;15.30;7.50;;;31.90;43.60;;;32.03;30.37;97296.69;5084996;28;20824;-77
2022/06/19 09:30:20;;;;;;;11.17;7.70;;;32.30;43.70;;;31.99;29.91;97293.84;5089618;28;20556;-79
2022/06/19 09:32:54;;;;;;;13.10;7.57;;;32.40;43.40;;;32.01;30.36;97297.09;5103804;28;20496;-78
2022/06/19 09:35:34;;;;;;;12.47;7.37;;;32.40;43.50;;;32.07;30.27;97297.53;5092477;28;20452;-77
2022/06/19 09:38:07;;;;;;;12.30;6.80;;;32.40;43.50;;;32.19;30.22;97286.16;5093736;28;20498;-79
2022/06/19 09:40:38;;;;;;;9.80;7.30;;;32.50;43.50;;;32.55;29.53;97285.06;5084630;28;20952;-78
2022/06/19 09:43:12;;;;;;;14.67;8.47;;;32.70;43.40;;;32.45;29.21;97276.16;5082273;28;20451;-79
2022/06/19 09:45:45;;;;;;;12.57;7.83;;;32.80;42.60;;;32.55;28.79;97266.28;5088977;28;20463;-79
2022/06/19 09:48:22;;;;;;;10.67;6.90;;;32.90;42.50;;;32.48;28.72;97269.78;5069318;28;20488;-77
2022/06/19 09:50:55;;;;;;;11.50;7.87;;;32.90;42.40;;;32.41;28.92;97269.72;5087671;28;20455;-78
2022/06/19 09:53:30;;;;;;;10.43;6.63;;;32.70;42.40;;;32.49;28.78;97262.22;5088383;28;20456;-79
2022/06/19 09:56:05;;;;;;;11.07;7.30;;;32.70;42.40;;;32.48;28.93;97261.41;5088530;28;21238;-78
2022/06/19 09:58:37;;;;;;;12.37;7.80;;;32.80;42.60;;;32.26;29.33;97254.72;5088585;28;20444;-79
2022/06/19 10:01:06;;;;;;;11.37;7.73;;;32.50;42.60;;;32.26;28.88;97221.19;5086596;28;20451;-79
2022/06/19 10:03:40;;;;;;;12.97;8.00;;;32.70;42.60;;;32.62;28.82;97251.59;5081892;28;20464;-79
2022/06/19 10:06:14;;;;;;;10.67;7.40;;;32.80;42.40;;;32.90;28.20;97247.53;5076845;28;20495;-79
2022/06/19 10:08:46;;;;;;;14.40;7.30;;;33.10;42.30;;;32.66;28.56;97255.22;5086258;28;20479;-78
2022/06/19 10:11:17;;;;;;;18.30;8.47;;;32.90;42.40;;;32.78;28.53;97249.38;5089907;28;20451;-79
2022/06/19 10:13:55;;;;;;;9.77;7.43;;;33.00;42.50;;;33.06;28.41;97241.69;5086280;28;20471;-79
2022/06/19 10:16:30;;;;;;;12.37;7.17;;;33.20;42.60;;;33.24;27.93;97252.28;5085164;28;20832;-78
2022/06/19 10:18:59;;;;;;;14.27;7.50;;;33.50;42.10;;;33.72;27.49;97252.28;5086171;28;21585;-81
2022/06/19 10:24:29;;;;;;;9.70;7.13;;;33.80;41.40;;;33.49;26.90;97235.72;5085243;28;20949;-80
2022/06/19 10:27:07;;;;;;;8.90;7.17;;;33.90;41.20;;;33.51;26.87;97241.72;5087572;28;21004;-79
2022/06/19 10:29:48;;;;;;;12.20;6.83;;;33.80;41.40;;;33.55;26.80;97234.16;5084041;28;20484;-79
2022/06/19 10:32:30;;;;;;;9.60;7.83;;;33.90;41.40;;;33.84;26.86;97251.16;5070798;28;20516;-77
2022/06/19 10:35:15;;;;;;;13.40;7.90;;;34.00;41.40;;;33.63;26.75;97252.63;5086427;28;20456;-81
2022/06/19 10:37:56;;;;;;;13.30;7.50;;;33.90;41.20;;;33.69;26.00;97232.66;5065976;28;20456;-80
2022/06/19 10:40:36;;;;;;;9.67;6.83;;;34.00;40.80;;;33.95;25.75;97242.03;5077905;28;20867;-79
2022/06/19 10:43:16;;;;;;;9.23;6.40;;;34.10;40.80;;;33.95;25.15;97245.63;5081940;28;20550;-79
2022/06/19 10:45:52;;;;;;;14.00;6.50;;;34.20;40.10;;;34.16;25.02;97233.78;5100526;28;20490;-79